createdAt,value
2018-02-06T00:00:33.753Z,21.62
2018-02-06T00:01:36.228Z,25.30
2018-02-06T00:02:39.609Z,19.75
2018-02-06T00:03:42.151Z,22.08
2018-02-06T00:04:44.613Z,21.58
2018-02-06T00:05:47.138Z,24.52
2018-02-06T00:06:51.141Z,29.40
2018-02-06T00:07:53.610Z,22.83
2018-02-06T00:08:56.076Z,21.58
2018-02-06T00:09:59.307Z,22.90
2018-02-06T00:11:02.639Z,19.85
2018-02-06T00:12:05.203Z,21.75
2018-02-06T00:13:07.736Z,20.30
2018-02-06T00:14:10.237Z,19.33
2018-02-06T00:15:13.489Z,21.85
2018-02-06T00:16:15.978Z,18.27
2018-02-06T00:17:19.978Z,24.45
2018-02-06T00:18:22.495Z,21.40
2018-02-06T00:19:25.736Z,20.17
2018-02-06T00:20:29.033Z,24.45
2018-02-06T00:21:31.585Z,22.27
2018-02-06T00:22:45.910Z,21.15
2018-02-06T00:23:49.121Z,19.60
2018-02-06T00:24:52.372Z,26.02
2018-02-06T00:25:55.590Z,23.52
2018-02-06T00:26:58.094Z,23.40
2018-02-06T00:28:00.606Z,23.70
2018-02-06T00:29:03.082Z,20.00
2018-02-06T00:30:05.550Z,23.23
2018-02-06T00:31:08.505Z,23.17
2018-02-06T00:32:10.999Z,22.90
2018-02-06T00:33:13.469Z,21.45
2018-02-06T00:34:15.926Z,29.83
2018-02-06T00:35:19.210Z,19.73
2018-02-06T00:36:21.685Z,19.35
2018-02-06T00:37:25.060Z,24.25
2018-02-06T00:38:27.532Z,25.35
2018-02-06T00:39:30.097Z,22.27
2018-02-06T00:40:33.354Z,21.70
2018-02-06T00:41:36.857Z,23.75
2018-02-06T00:42:39.391Z,25.88
2018-02-06T00:43:42.642Z,23.87
2018-02-06T00:44:45.521Z,23.25
2018-02-06T00:45:47.986Z,23.25
2018-02-06T00:46:51.229Z,24.50
2018-02-06T00:47:54.513Z,26.05
2018-02-06T00:48:56.984Z,21.98
2018-02-06T00:49:59.495Z,24.33
2018-02-06T00:51:01.961Z,24.08
2018-02-06T00:52:04.434Z,25.48
2018-02-06T00:53:06.937Z,23.60
2018-02-06T00:54:09.416Z,26.98
2018-02-06T00:55:12.008Z,25.08
2018-02-06T00:56:14.472Z,31.48
2018-02-06T00:57:16.963Z,26.20
2018-02-06T00:58:19.440Z,26.52
2018-02-06T00:59:22.700Z,28.60
2018-02-06T01:00:25.956Z,30.55
2018-02-06T01:01:28.480Z,26.87
2018-02-06T01:02:30.973Z,24.37
2018-02-06T01:03:34.204Z,28.23
2018-02-06T01:04:36.682Z,28.60
2018-02-06T01:05:39.159Z,26.67
2018-02-06T01:06:43.149Z,28.75
2018-02-06T01:07:45.642Z,29.23
2018-02-06T01:08:48.129Z,27.08
2018-02-06T01:09:50.702Z,30.12
2018-02-06T01:10:53.257Z,24.37
2018-02-06T01:11:56.541Z,31.48
2018-02-06T01:12:59.012Z,28.35
2018-02-06T01:14:02.246Z,31.23
2018-02-06T01:15:04.759Z,30.83
2018-02-06T01:16:08.011Z,30.02
2018-02-06T01:17:11.249Z,27.65
2018-02-06T01:18:14.493Z,26.10
2018-02-06T01:19:17.769Z,25.35
2018-02-06T01:20:20.305Z,30.58
2018-02-06T01:21:22.829Z,28.27
2018-02-06T01:22:25.386Z,30.17
2018-02-06T01:23:27.870Z,24.15
2018-02-06T01:24:30.412Z,25.90
2018-02-06T01:25:32.897Z,30.37
2018-02-06T01:26:35.392Z,26.08
2018-02-06T01:27:37.881Z,28.87
2018-02-06T01:28:40.385Z,28.90
2018-02-06T01:29:42.922Z,25.83
2018-02-06T01:30:45.405Z,25.67
2018-02-06T01:31:47.885Z,24.52
2018-02-06T01:32:51.242Z,26.25
2018-02-06T01:33:53.733Z,23.95
2018-02-06T01:34:56.374Z,24.35
2018-02-06T01:35:58.949Z,24.05
2018-02-06T01:37:01.436Z,24.67
2018-02-06T01:38:03.953Z,23.05
2018-02-06T01:39:06.434Z,23.90
2018-02-06T01:40:08.913Z,22.15
2018-02-06T01:41:11.454Z,21.42
2018-02-06T01:42:14.066Z,23.02
2018-02-06T01:43:16.563Z,25.50
2018-02-06T01:44:19.811Z,22.52
2018-02-06T01:45:23.091Z,23.77
2018-02-06T01:46:25.558Z,23.23
2018-02-06T01:47:28.802Z,24.50
2018-02-06T01:48:32.053Z,25.25
2018-02-06T01:49:35.290Z,24.15
2018-02-06T01:50:38.669Z,23.35
2018-02-06T01:51:41.132Z,28.70
2018-02-06T01:52:43.601Z,23.25
2018-02-06T01:53:46.835Z,22.58
2018-02-06T01:54:50.117Z,23.58
2018-02-06T01:55:52.628Z,31.20
2018-02-06T01:56:55.111Z,21.12
2018-02-06T01:57:58.418Z,27.20
2018-02-06T01:59:00.960Z,22.90
2018-02-06T02:00:03.485Z,24.92
2018-02-06T02:01:05.981Z,21.35
2018-02-06T02:02:08.442Z,26.35
2018-02-06T02:03:10.935Z,25.65
2018-02-06T02:04:13.418Z,21.70
2018-02-06T02:05:15.874Z,20.92
2018-02-06T02:06:18.365Z,21.60
2018-02-06T02:07:21.612Z,16.15
2018-02-06T02:08:24.825Z,19.60
2018-02-06T02:09:27.456Z,21.23
2018-02-06T02:10:29.934Z,18.42
2018-02-06T02:11:32.430Z,20.85
2018-02-06T02:12:35.683Z,17.15
2018-02-06T02:13:38.934Z,23.12
2018-02-06T02:14:41.468Z,22.48
2018-02-06T02:15:44.008Z,19.02
2018-02-06T02:16:46.751Z,21.37
2018-02-06T02:17:49.241Z,19.87
2018-02-06T02:18:51.779Z,23.90
2018-02-06T02:19:54.253Z,20.83
2018-02-06T02:20:56.741Z,22.92
2018-02-06T02:21:59.255Z,20.58
2018-02-06T02:23:01.742Z,23.90
2018-02-06T02:24:04.213Z,24.15
2018-02-06T02:25:06.685Z,17.92
2018-02-06T02:26:09.946Z,21.58
2018-02-06T02:27:13.187Z,25.70
2018-02-06T02:28:16.462Z,21.42
2018-02-06T02:29:18.959Z,19.62
2018-02-06T02:30:22.323Z,18.92
2018-02-06T02:31:24.841Z,19.83
2018-02-06T02:32:27.306Z,23.02
2018-02-06T02:33:29.786Z,21.85
2018-02-06T02:34:33.022Z,20.52
2018-02-06T02:35:36.262Z,18.87
2018-02-06T02:36:41.293Z,24.10
2018-02-06T02:37:43.779Z,20.33
2018-02-06T02:38:46.262Z,25.95
2018-02-06T02:39:48.967Z,22.75
2018-02-06T02:40:51.426Z,21.12
2018-02-06T04:39:14.096Z,21.00
2018-02-06T04:40:17.332Z,20.52
2018-02-06T04:41:19.846Z,23.83
2018-02-06T04:42:22.357Z,21.30
2018-02-06T04:43:24.834Z,23.02
2018-02-06T04:44:28.063Z,19.50
2018-02-06T04:45:30.548Z,20.80
2018-02-06T04:46:33.070Z,21.70
2018-02-06T04:47:35.681Z,21.35
2018-02-06T04:48:38.160Z,22.50
2018-02-06T04:49:40.629Z,28.62
2018-02-06T04:50:43.098Z,21.33
2018-02-06T04:51:45.565Z,20.40
2018-02-06T04:52:48.815Z,20.88
2018-02-06T04:53:52.056Z,19.90
2018-02-06T04:54:55.278Z,19.25
2018-02-06T04:55:58.505Z,21.27
2018-02-06T04:57:00.973Z,23.70
2018-02-06T04:58:03.498Z,19.98
2018-02-06T04:59:06.130Z,20.62
2018-02-06T05:00:08.606Z,18.15
2018-02-06T05:01:11.076Z,27.00
2018-02-06T05:02:13.545Z,21.48
2018-02-06T05:03:16.041Z,23.85
2018-02-06T05:04:18.558Z,22.62
2018-02-06T05:05:21.040Z,23.52
2018-02-06T05:06:23.503Z,22.17
2018-02-06T05:07:25.969Z,21.87
2018-02-06T05:08:28.444Z,25.48
2018-02-06T05:09:31.797Z,19.48
2018-02-06T05:10:34.545Z,23.50
2018-02-06T05:11:37.020Z,19.92
2018-02-06T05:12:41.029Z,19.60
2018-02-06T05:13:43.498Z,17.62
2018-02-06T05:14:45.962Z,20.12
2018-02-06T05:15:48.459Z,19.42
2018-02-06T05:16:51.681Z,22.10
2018-02-06T05:17:54.191Z,21.77
2018-02-06T05:18:57.145Z,20.92
2018-02-06T05:19:59.716Z,21.75
2018-02-06T05:21:02.201Z,19.50
2018-02-06T05:22:04.678Z,21.05
2018-02-06T05:23:07.198Z,26.10
2018-02-06T05:24:10.178Z,22.33
2018-02-06T05:25:12.683Z,19.25
2018-02-06T05:26:15.157Z,21.05
2018-02-06T05:27:18.419Z,24.42
2018-02-06T05:28:20.962Z,18.15
2018-02-06T05:29:23.455Z,22.62
2018-02-06T05:30:26.727Z,20.83
2018-02-06T05:31:29.233Z,21.17
2018-02-06T05:32:32.461Z,20.08
2018-02-06T05:33:35.707Z,21.17
2018-02-06T05:34:38.982Z,24.33
2018-02-06T05:35:41.446Z,20.42
2018-02-06T05:36:44.012Z,25.15
2018-02-06T05:37:47.258Z,22.37
2018-02-06T05:38:49.731Z,22.58
2018-02-06T05:39:52.209Z,23.55
2018-02-06T05:40:54.685Z,18.58
2018-02-06T05:41:57.388Z,20.65
2018-02-06T05:43:00.476Z,21.25
2018-02-06T05:44:03.709Z,21.17
2018-02-06T05:45:06.278Z,24.27
2018-02-06T05:46:08.745Z,21.85
2018-02-06T05:47:11.250Z,25.92
2018-02-06T05:48:13.741Z,19.12
2018-02-06T05:49:16.264Z,20.40
2018-02-06T05:50:19.509Z,21.77
2018-02-06T05:51:22.737Z,23.62
2018-02-06T05:52:25.986Z,28.02
2018-02-06T05:53:29.227Z,23.20
2018-02-06T05:54:32.601Z,21.00
2018-02-06T05:55:35.107Z,20.35
2018-02-06T05:56:38.339Z,24.02
2018-02-06T05:57:41.581Z,23.38
2018-02-06T05:58:44.838Z,22.87
2018-02-06T05:59:48.095Z,22.17
2018-02-06T06:00:50.561Z,22.15
2018-02-06T06:01:53.816Z,23.08
2018-02-06T06:02:57.068Z,18.67
2018-02-06T06:04:00.455Z,27.10
2018-02-06T06:05:02.993Z,19.05
2018-02-06T06:06:05.461Z,23.58
2018-02-06T06:07:07.941Z,25.20
2018-02-06T06:08:10.409Z,26.45
2018-02-06T06:09:13.634Z,24.40
2018-02-06T06:10:16.176Z,27.80
2018-02-06T06:11:18.646Z,28.95
2018-02-06T06:12:21.202Z,27.10
2018-02-06T06:13:23.668Z,27.73
2018-02-06T06:14:26.907Z,28.92
2018-02-06T06:15:30.174Z,27.33
2018-02-06T06:16:32.668Z,26.35
2018-02-06T06:17:35.151Z,24.75
2018-02-06T06:18:37.640Z,31.33
2018-02-06T06:19:40.175Z,26.90
2018-02-06T06:20:42.689Z,26.52
2018-02-06T06:21:45.952Z,34.28
2018-02-06T06:22:48.425Z,27.85
2018-02-06T06:23:50.989Z,28.75
2018-02-06T06:24:53.467Z,25.27
2018-02-06T06:25:55.975Z,30.52
2018-02-06T06:26:58.458Z,27.48
2018-02-06T06:28:00.965Z,23.80
2018-02-06T06:29:03.443Z,28.15
2018-02-06T06:30:05.913Z,26.05
2018-02-06T06:31:09.222Z,26.37
2018-02-06T06:32:11.721Z,23.85
2018-02-06T06:33:14.181Z,27.10
2018-02-06T06:34:16.685Z,23.20
2018-02-06T06:35:19.172Z,27.73
2018-02-06T06:36:21.717Z,27.40
2018-02-06T06:37:24.262Z,26.35
2018-02-06T06:38:26.730Z,29.42
2018-02-06T06:39:29.201Z,26.55
2018-02-06T06:40:31.675Z,29.83
2018-02-06T06:41:34.976Z,28.35
2018-02-06T06:42:37.455Z,28.70
2018-02-06T06:43:40.723Z,26.45
2018-02-06T06:44:43.202Z,27.15
2018-02-06T06:45:45.763Z,31.60
2018-02-06T06:46:48.998Z,28.23
2018-02-06T06:47:52.235Z,26.25
2018-02-06T06:48:56.087Z,25.92
2018-02-06T06:49:59.377Z,28.70
2018-02-06T06:51:01.850Z,26.67
2018-02-06T06:52:04.345Z,32.08
2018-02-06T06:53:06.808Z,32.10
2018-02-06T06:54:10.049Z,28.80
2018-02-06T06:55:13.400Z,28.05
2018-02-06T06:56:16.629Z,26.50
2018-02-06T06:57:19.110Z,28.08
2018-02-06T06:58:21.649Z,28.85
2018-02-06T06:59:24.131Z,23.65
2018-02-06T07:00:27.424Z,23.55
2018-02-06T07:01:29.869Z,26.30
2018-02-06T07:02:33.122Z,27.08
2018-02-06T07:03:35.588Z,24.67
2018-02-06T07:04:38.089Z,25.67
2018-02-06T07:05:40.601Z,28.40
2018-02-06T07:06:43.880Z,24.90
2018-02-06T07:07:46.390Z,32.88
2018-02-06T07:08:48.870Z,25.65
2018-02-06T07:09:51.369Z,24.95
2018-02-06T07:10:53.879Z,27.00
2018-02-06T07:11:56.355Z,24.60
2018-02-06T07:13:00.345Z,22.42
2018-02-06T07:14:03.569Z,25.60
2018-02-06T07:15:06.833Z,24.05
2018-02-06T07:16:09.308Z,24.63
2018-02-06T07:17:11.813Z,27.55
2018-02-06T07:18:14.278Z,25.58
2018-02-06T07:19:18.193Z,24.35
2018-02-06T07:20:20.689Z,23.50
2018-02-06T07:21:23.228Z,21.77
2018-02-06T07:22:26.480Z,22.00
2018-02-06T07:23:28.946Z,23.25
2018-02-06T07:24:31.464Z,22.20
2018-02-06T07:25:34.737Z,22.55
2018-02-06T07:26:37.978Z,23.48
2018-02-06T07:27:41.241Z,25.23
2018-02-06T07:28:43.712Z,21.05
2018-02-06T07:29:46.187Z,27.65
2018-02-06T07:30:48.716Z,25.12
2018-02-06T07:31:51.195Z,22.42
2018-02-06T07:32:53.675Z,22.13
2018-02-06T07:33:56.155Z,19.70
2018-02-06T07:34:59.384Z,23.00
2018-02-06T07:36:01.897Z,20.67
2018-02-06T07:37:04.370Z,20.42
2018-02-06T07:38:06.912Z,21.98
2018-02-06T07:39:09.433Z,22.80
2018-02-06T07:40:11.970Z,23.90
2018-02-06T07:41:14.450Z,19.00
2018-02-06T07:42:17.699Z,21.12
2018-02-06T07:43:21.021Z,21.40
2018-02-06T07:44:23.477Z,21.20
2018-02-06T07:45:26.750Z,20.35
2018-02-06T07:46:29.250Z,20.88
2018-02-06T07:47:32.495Z,23.50
2018-02-06T07:48:35.726Z,19.42
2018-02-06T07:49:38.957Z,20.37
2018-02-06T07:50:42.619Z,23.52
2018-02-06T07:51:45.867Z,19.35
2018-02-06T07:52:49.136Z,22.48
2018-02-06T07:53:51.617Z,20.00
2018-02-06T07:54:54.174Z,23.80
2018-02-06T07:55:56.647Z,27.08
2018-02-06T07:56:59.113Z,18.83
2018-02-06T07:58:02.366Z,23.12
2018-02-06T07:59:05.602Z,23.05
2018-02-06T08:00:08.141Z,21.02
2018-02-06T08:01:10.645Z,24.10
2018-02-06T08:02:13.889Z,22.52
2018-02-06T08:03:17.128Z,19.45
2018-02-06T08:04:20.357Z,21.90
2018-02-06T08:05:23.626Z,21.45
2018-02-06T08:06:26.883Z,19.52
2018-02-06T08:07:29.390Z,17.42
2018-02-06T08:08:32.646Z,22.42
2018-02-06T08:09:35.159Z,20.52
2018-02-06T08:10:38.409Z,22.33
2018-02-06T08:11:40.893Z,19.73
2018-02-06T08:12:43.413Z,26.37
2018-02-06T08:13:46.665Z,21.08
2018-02-06T08:14:50.680Z,22.30
2018-02-06T08:15:53.136Z,21.90
2018-02-06T08:16:55.616Z,20.05
2018-02-06T08:17:58.115Z,21.48
2018-02-06T08:19:01.368Z,25.55
2018-02-06T08:20:04.587Z,18.30
2018-02-06T08:21:07.155Z,21.50
2018-02-06T08:22:09.619Z,18.85
2018-02-06T08:23:12.227Z,19.95
2018-02-06T08:24:14.688Z,22.60
2018-02-06T08:25:17.231Z,20.88
2018-02-06T08:26:20.470Z,18.12
2018-02-06T08:27:22.950Z,15.95
2018-02-06T08:28:25.452Z,18.15
2018-02-06T08:29:27.929Z,19.40
2018-02-06T08:30:30.498Z,16.62
2018-02-06T08:31:33.708Z,19.08
2018-02-06T08:32:36.985Z,15.85
2018-02-06T08:33:39.483Z,17.90
2018-02-06T08:34:42.301Z,17.55
2018-02-06T08:35:46.292Z,20.30
2018-02-06T08:36:49.536Z,16.90
2018-02-06T08:37:52.802Z,21.40
2018-02-06T08:38:55.310Z,16.80
2018-02-06T08:39:58.566Z,17.90
2018-02-06T08:41:01.042Z,18.05
2018-02-06T08:42:04.316Z,19.98
2018-02-06T08:43:06.811Z,19.45
2018-02-06T08:44:10.781Z,18.20
2018-02-06T08:45:14.042Z,18.73
2018-02-06T08:46:17.269Z,15.60
2018-02-06T08:47:20.572Z,18.90
2018-02-06T08:48:23.065Z,13.57
2018-02-06T08:49:25.575Z,16.17
2018-02-06T08:50:28.862Z,16.50
2018-02-06T08:51:31.350Z,19.20
2018-02-06T08:52:34.607Z,17.33
2018-02-06T08:53:37.070Z,19.17
2018-02-06T08:54:39.573Z,18.20
2018-02-06T08:55:42.060Z,16.33
2018-02-06T08:56:45.315Z,21.75
2018-02-06T08:57:47.767Z,20.98
2018-02-06T08:58:50.218Z,15.93
2018-02-06T08:59:54.236Z,16.80
2018-02-06T09:00:56.754Z,20.35
2018-02-06T09:01:59.226Z,14.20
2018-02-06T09:03:03.232Z,16.77
2018-02-06T09:04:05.706Z,14.70
2018-02-06T09:05:08.170Z,15.68
2018-02-06T09:06:11.420Z,15.85
2018-02-06T09:07:13.880Z,14.55
2018-02-06T09:08:16.372Z,16.87
2018-02-06T09:09:18.843Z,21.62
2018-02-06T09:10:21.929Z,18.02
2018-02-06T09:11:25.177Z,16.58
2018-02-06T09:12:27.689Z,17.48
2018-02-06T09:13:30.924Z,16.02
2018-02-06T09:14:34.166Z,18.45
2018-02-06T09:15:37.393Z,15.20
2018-02-06T09:16:39.990Z,17.17
2018-02-06T09:17:42.518Z,18.90
2018-02-06T09:18:44.983Z,20.05
2018-02-06T09:19:48.231Z,17.80
2018-02-06T09:20:51.559Z,15.38
2018-02-06T09:21:54.032Z,17.70
2018-02-06T09:22:56.543Z,17.35
2018-02-06T09:23:59.081Z,19.00
2018-02-06T09:25:01.560Z,18.77
2018-02-06T09:26:04.053Z,13.73
2018-02-06T09:27:06.842Z,16.20
2018-02-06T09:28:10.099Z,21.80
2018-02-06T09:29:12.615Z,18.05
2018-02-06T09:30:15.882Z,14.68
2018-02-06T09:31:18.351Z,14.55
2018-02-06T09:32:20.922Z,13.77
2018-02-06T09:33:23.424Z,17.17
2018-02-06T09:34:26.691Z,13.93
2018-02-06T09:35:29.148Z,16.40
2018-02-06T09:36:31.654Z,17.77
2018-02-06T09:37:34.126Z,15.20
2018-02-06T09:38:36.655Z,14.75
2018-02-06T09:39:39.176Z,14.05
2018-02-06T09:40:41.736Z,15.07
2018-02-06T09:41:44.206Z,19.00
2018-02-06T09:42:46.664Z,17.02
2018-02-06T09:43:49.897Z,15.10
2018-02-06T09:44:52.550Z,15.15
2018-02-06T09:45:55.078Z,21.80
2018-02-06T09:46:57.583Z,18.62
2018-02-06T09:48:02.158Z,16.50
2018-02-06T09:49:04.721Z,12.80
2018-02-06T09:50:07.223Z,15.20
2018-02-06T09:51:10.465Z,14.77
2018-02-06T09:52:13.715Z,13.27
2018-02-06T09:53:16.246Z,11.60
2018-02-06T09:54:19.462Z,13.35
2018-02-06T09:55:22.722Z,13.52
2018-02-06T09:56:25.979Z,17.45
2018-02-06T09:57:28.439Z,12.75
2018-02-06T09:58:30.912Z,15.60
2018-02-06T09:59:34.192Z,11.63
2018-02-06T10:00:36.649Z,11.65
2018-02-06T10:01:39.953Z,14.32
2018-02-06T10:02:42.436Z,15.45
2018-02-06T10:03:45.683Z,12.02
2018-02-06T10:04:49.175Z,12.35
2018-02-06T10:05:52.084Z,10.80
2018-02-06T10:06:54.638Z,10.75
2018-02-06T10:07:57.109Z,14.48
2018-02-06T10:09:00.425Z,12.73
2018-02-06T10:10:02.947Z,9.50
2018-02-06T10:11:05.434Z,12.43
2018-02-06T10:12:07.929Z,9.23
2018-02-06T10:13:11.196Z,10.55
2018-02-06T10:14:13.743Z,11.90
2018-02-06T10:15:16.272Z,9.88
2018-02-06T10:16:18.769Z,13.40
2018-02-06T10:17:22.034Z,13.55
2018-02-06T10:18:24.496Z,14.30
2018-02-06T10:19:26.961Z,12.05
2018-02-06T10:20:29.520Z,12.65
2018-02-06T10:21:32.708Z,13.00
2018-02-06T10:22:35.965Z,17.60
2018-02-06T10:23:39.221Z,10.95
2018-02-06T10:24:41.727Z,12.32
2018-02-06T10:25:44.878Z,10.68
2018-02-06T10:26:48.101Z,11.48
2018-02-06T10:27:51.330Z,10.88
2018-02-06T10:28:54.584Z,12.85
2018-02-06T10:29:57.805Z,11.52
2018-02-06T10:31:00.285Z,11.20
2018-02-06T10:32:02.780Z,12.13
2018-02-06T10:33:05.327Z,10.48
2018-02-06T10:34:07.834Z,9.20
2018-02-06T10:35:11.090Z,11.50
2018-02-06T10:36:14.372Z,11.32
2018-02-06T10:37:16.836Z,14.73
2018-02-06T10:38:20.117Z,12.70
2018-02-06T10:39:22.735Z,10.82
2018-02-06T10:40:25.953Z,10.98
2018-02-06T10:41:29.195Z,10.18
2018-02-06T10:42:31.662Z,8.80
2018-02-06T10:43:34.147Z,12.18
2018-02-06T10:44:37.408Z,13.45
2018-02-06T10:45:39.920Z,10.65
2018-02-06T10:46:43.175Z,15.82
2018-02-06T10:47:45.657Z,11.65
2018-02-06T10:48:48.138Z,10.60
2018-02-06T10:49:50.617Z,10.25
2018-02-06T10:50:53.105Z,16.20
2018-02-06T10:51:55.575Z,10.35
2018-02-06T10:52:58.077Z,11.25
2018-02-06T10:54:00.618Z,11.38
2018-02-06T10:55:03.074Z,10.02
2018-02-06T10:56:06.334Z,14.18
2018-02-06T10:57:08.826Z,11.27
2018-02-06T10:58:11.389Z,12.13
2018-02-06T10:59:13.853Z,10.57
2018-02-06T11:00:17.821Z,11.93
2018-02-06T11:01:20.350Z,10.75
2018-02-06T11:02:22.854Z,9.07
2018-02-06T11:03:25.339Z,11.05
2018-02-06T11:04:27.817Z,10.77
2018-02-06T11:05:30.270Z,9.88
2018-02-06T11:06:33.510Z,9.43
2018-02-06T11:07:36.753Z,10.45
2018-02-06T11:08:39.974Z,9.05
2018-02-06T11:09:43.947Z,10.30
2018-02-06T11:10:47.163Z,8.80
2018-02-06T11:11:49.623Z,8.93
2018-02-06T11:12:52.956Z,8.25
2018-02-06T11:13:56.204Z,9.32
2018-02-06T11:14:58.725Z,13.13
2018-02-06T11:16:01.990Z,9.35
2018-02-06T11:17:04.448Z,6.40
2018-02-06T11:18:07.037Z,13.88
2018-02-06T11:19:09.497Z,8.05
2018-02-06T11:20:11.965Z,10.65
2018-02-06T11:21:15.884Z,9.02
2018-02-06T11:22:18.349Z,12.30
2018-02-06T11:23:21.568Z,9.43
2018-02-06T11:24:24.795Z,6.70
2018-02-06T11:25:27.277Z,6.60
2018-02-06T11:26:29.741Z,8.27
2018-02-06T11:27:32.233Z,7.10
2018-02-06T11:28:34.725Z,12.63
2018-02-06T11:29:38.000Z,10.38
2018-02-06T11:30:40.476Z,8.60
2018-02-06T11:31:43.672Z,7.95
2018-02-06T11:32:46.295Z,6.37
2018-02-06T11:33:48.793Z,5.95
2018-02-06T11:34:52.025Z,10.13
2018-02-06T11:35:54.488Z,9.15
2018-02-06T11:36:56.953Z,6.68
2018-02-06T11:37:59.481Z,4.68
2018-02-06T11:39:02.039Z,12.77
2018-02-06T11:40:05.269Z,7.00
2018-02-06T11:41:08.347Z,7.75
2018-02-06T11:42:10.800Z,7.68
2018-02-06T11:43:13.264Z,9.18
2018-02-06T11:44:15.751Z,6.55
2018-02-06T11:45:18.256Z,8.95
2018-02-06T11:46:20.766Z,6.68
2018-02-06T11:47:23.487Z,5.68
2018-02-06T11:48:26.706Z,7.20
2018-02-06T11:49:30.670Z,5.20
2018-02-06T11:50:33.943Z,9.90
2018-02-06T11:51:36.424Z,10.35
2018-02-06T11:52:40.410Z,10.13
2018-02-06T11:53:43.632Z,11.52
2018-02-06T11:54:46.097Z,7.68
2018-02-06T11:55:48.578Z,10.13
2018-02-06T11:56:51.816Z,8.45
2018-02-06T11:57:55.062Z,9.68
2018-02-06T11:58:57.533Z,8.48
2018-02-06T12:00:00.006Z,9.48
2018-02-06T12:01:02.473Z,8.65
2018-02-06T12:02:04.976Z,7.45
2018-02-06T12:03:08.388Z,8.38
2018-02-06T12:04:10.843Z,6.62
2018-02-06T12:05:13.312Z,5.62
2018-02-06T12:06:15.777Z,8.70
2018-02-06T12:07:18.337Z,9.63
2018-02-06T12:08:21.562Z,7.40
2018-02-06T12:09:24.013Z,9.48
2018-02-06T12:10:26.487Z,8.32
2018-02-06T12:11:29.480Z,12.65
2018-02-06T12:12:32.039Z,8.35
2018-02-06T12:13:35.071Z,7.10
2018-02-06T12:14:37.594Z,9.07
2018-02-06T12:15:40.040Z,7.50
2018-02-06T12:16:42.496Z,9.00
2018-02-06T12:17:45.756Z,10.70
2018-02-06T12:18:48.211Z,7.82
2018-02-06T12:19:50.656Z,8.95
2018-02-06T12:20:53.114Z,8.45
2018-02-06T12:21:56.374Z,9.77
2018-02-06T12:22:58.858Z,8.90
2018-02-06T12:24:01.324Z,10.20
2018-02-06T12:25:03.844Z,7.03
2018-02-06T12:26:07.089Z,7.25
2018-02-06T12:27:09.536Z,14.50
2018-02-06T12:28:12.032Z,10.40
2018-02-06T12:29:15.259Z,7.10
2018-02-06T12:30:17.752Z,8.30
2018-02-06T12:31:20.233Z,6.78
2018-02-06T12:32:22.689Z,9.07
2018-02-06T12:33:25.303Z,7.37
2018-02-06T12:34:27.858Z,8.18
2018-02-06T12:35:30.425Z,7.05
2018-02-06T12:36:33.656Z,8.15
2018-02-06T12:37:36.101Z,8.32
2018-02-06T12:38:38.637Z,8.70
2018-02-06T12:39:41.134Z,7.82
2018-02-06T12:40:44.621Z,6.97
2018-02-06T12:41:47.781Z,9.60
2018-02-06T12:42:50.233Z,5.97
2018-02-06T12:43:52.782Z,8.55
2018-02-06T12:44:56.026Z,8.20
2018-02-06T12:45:59.271Z,6.62
2018-02-06T12:47:01.752Z,9.65
2018-02-06T12:48:04.305Z,8.25
2018-02-06T12:49:07.758Z,8.88
2018-02-06T12:50:11.017Z,6.32
2018-02-06T12:51:13.493Z,9.05
2018-02-06T12:52:15.996Z,5.75
2018-02-06T12:53:18.445Z,7.07
2018-02-06T12:54:20.892Z,6.82
2018-02-06T12:55:24.128Z,5.87
2018-02-06T12:56:26.689Z,5.07
2018-02-06T12:57:29.149Z,8.20
2018-02-06T12:58:31.628Z,8.80
2018-02-06T12:59:34.854Z,6.07
2018-02-06T13:00:38.084Z,7.28
2018-02-06T13:01:40.559Z,13.95
2018-02-06T13:02:43.069Z,5.95
2018-02-06T13:03:45.517Z,6.03
2018-02-06T13:04:47.993Z,6.70
2018-02-06T13:05:51.259Z,5.30
2018-02-06T13:06:53.773Z,6.85
2018-02-06T13:07:57.029Z,5.37
2018-02-06T13:09:00.320Z,7.87
2018-02-06T13:10:02.774Z,7.70
2018-02-06T13:11:05.998Z,6.97
2018-02-06T13:12:08.466Z,6.78
2018-02-06T13:13:11.085Z,9.40
2018-02-06T13:14:13.602Z,6.15
2018-02-06T13:15:16.856Z,5.15
2018-02-06T13:16:19.353Z,6.70
2018-02-06T13:17:22.600Z,6.28
2018-02-06T13:18:25.825Z,4.22
2018-02-06T13:19:28.346Z,5.55
2018-02-06T13:20:30.911Z,9.13
2018-02-06T13:21:34.158Z,6.95
2018-02-06T13:22:37.367Z,6.12
2018-02-06T13:23:39.833Z,5.62
2018-02-06T13:24:42.332Z,5.10
2018-02-06T13:25:45.562Z,5.03
2018-02-06T13:26:48.116Z,5.97
2018-02-06T13:27:51.384Z,7.47
2018-02-06T13:28:53.816Z,5.78
2018-02-06T13:29:56.319Z,6.28
2018-02-06T13:30:58.787Z,6.12
2018-02-06T13:32:02.020Z,5.95
2018-02-06T13:33:04.543Z,9.93
2018-02-06T13:34:06.983Z,8.80
2018-02-06T13:35:09.458Z,5.30
2018-02-06T13:36:11.901Z,8.75
2018-02-06T13:37:14.395Z,7.55
2018-02-06T13:38:17.665Z,6.47
2018-02-06T13:39:20.137Z,7.35
2018-02-06T13:40:22.617Z,6.75
2018-02-06T13:41:25.081Z,9.80
2018-02-06T13:42:28.331Z,8.52
2018-02-06T13:43:30.786Z,7.15
2018-02-06T13:44:33.244Z,9.20
2018-02-06T13:45:35.685Z,6.65
2018-02-06T13:46:38.277Z,6.37
2018-02-06T13:47:40.747Z,10.68
2018-02-06T13:48:43.992Z,7.37
2018-02-06T13:49:46.460Z,7.10
2018-02-06T13:50:48.923Z,7.12
2018-02-06T13:51:52.121Z,8.10
2018-02-06T13:52:54.624Z,7.07
2018-02-06T13:53:57.087Z,8.43
2018-02-06T13:54:59.542Z,7.20
2018-02-06T13:56:02.001Z,5.53
2018-02-06T13:57:05.238Z,8.80
2018-02-06T13:58:07.721Z,11.68
2018-02-06T13:59:10.189Z,7.12
2018-02-06T14:00:13.417Z,8.38
2018-02-06T14:01:15.899Z,10.48
2018-02-06T14:02:18.386Z,12.65
2018-02-06T14:03:21.644Z,7.85
2018-02-06T14:04:24.099Z,7.45
2018-02-06T14:05:26.569Z,7.87
2018-02-06T14:06:29.030Z,11.10
2018-02-06T14:07:31.489Z,8.38
2018-02-06T14:08:33.969Z,8.60
2018-02-06T14:09:36.428Z,9.02
2018-02-06T14:10:38.915Z,9.02
2018-02-06T14:11:42.168Z,9.77
2018-02-06T14:12:44.620Z,7.37
2018-02-06T14:13:47.210Z,8.07
2018-02-06T14:14:49.692Z,10.00
2018-02-06T14:15:52.141Z,7.40
2018-02-06T14:16:55.394Z,9.20
2018-02-06T14:17:58.612Z,9.15
2018-02-06T14:19:01.587Z,6.15
2018-02-06T14:20:04.109Z,8.93
2018-02-06T14:21:06.610Z,9.38
2018-02-06T14:22:09.850Z,8.45
2018-02-06T14:23:12.435Z,8.65
2018-02-06T14:24:14.901Z,7.10
2018-02-06T14:25:18.121Z,9.52
2018-02-06T14:26:20.678Z,9.25
2018-02-06T14:27:23.913Z,8.52
2018-02-06T14:28:26.404Z,10.82
2018-02-06T14:29:28.894Z,10.88
2018-02-06T14:30:31.353Z,8.00
2018-02-06T14:31:33.888Z,8.70
2018-02-06T14:32:36.347Z,10.32
2018-02-06T14:33:39.619Z,7.70
2018-02-06T14:34:42.094Z,13.75
2018-02-06T14:35:44.557Z,9.05
2018-02-06T14:36:47.071Z,10.45
2018-02-06T14:37:50.709Z,7.45
2018-02-06T14:38:53.938Z,6.80
2018-02-06T14:39:57.923Z,11.23
2018-02-06T14:41:01.160Z,7.95
2018-02-06T14:42:04.429Z,7.03
2018-02-06T14:43:06.940Z,8.00
2018-02-06T14:44:09.482Z,8.10
2018-02-06T14:45:11.960Z,8.90
2018-02-06T14:46:14.432Z,9.40
2018-02-06T14:47:16.951Z,8.02
2018-02-06T14:48:19.420Z,11.63
2018-02-06T14:49:21.910Z,9.57
2018-02-06T14:50:24.406Z,8.02
2018-02-06T14:51:27.668Z,10.93
2018-02-06T14:52:30.181Z,7.60
2018-02-06T14:53:34.018Z,8.55
2018-02-06T14:54:36.734Z,7.18
2018-02-06T14:55:40.735Z,8.25
2018-02-06T14:56:43.205Z,7.72
2018-02-06T14:57:45.664Z,7.97
2018-02-06T14:58:48.900Z,10.55
2018-02-06T14:59:51.459Z,11.57
2018-02-06T15:00:53.929Z,14.25
2018-02-06T15:01:56.397Z,9.20
2018-02-06T15:02:58.858Z,9.27
2018-02-06T15:04:01.318Z,7.18
2018-02-06T15:05:05.302Z,8.93
2018-02-06T15:06:08.653Z,11.43
2018-02-06T15:07:11.112Z,9.10
2018-02-06T15:08:13.602Z,8.43
2018-02-06T15:09:16.062Z,8.43
2018-02-06T15:10:18.530Z,9.70
2018-02-06T15:11:21.027Z,10.18
2018-02-06T15:12:23.514Z,7.75
2018-02-06T15:13:25.960Z,8.70
2018-02-06T15:14:28.438Z,9.02
2018-02-06T15:15:31.661Z,10.00
2018-02-06T15:16:34.211Z,9.65
2018-02-06T15:17:37.440Z,9.82
2018-02-06T15:18:40.665Z,9.63
2018-02-06T15:19:43.190Z,10.90
2018-02-06T15:20:46.425Z,10.18
2018-02-06T15:21:48.887Z,8.63
2018-02-06T15:22:52.146Z,10.27
2018-02-06T15:23:54.670Z,12.05
2018-02-06T15:24:57.155Z,8.77
2018-02-06T15:25:59.927Z,9.27
2018-02-06T15:27:02.412Z,9.60
2018-02-06T15:28:06.389Z,14.25
2018-02-06T15:29:09.611Z,11.00
2018-02-06T15:30:12.097Z,10.00
2018-02-06T15:31:14.601Z,11.48
2018-02-06T15:32:17.056Z,8.98
2018-02-06T15:33:19.787Z,10.85